Terminal Aerodrome Forecast
Issued by NWS

Home | Current Version | Previous Version | Text Only | Print | Product List | Glossary On
Versions: 1 2 3 4 5 6 7 8 9 10 11 12 13 14
798
FTUS44 KEPZ 261512 AAA
TAFTCS
TAF AMD
KTCS 261512Z 2615/2712 04012KT P6SM BKN110
     FM262000 15010G17KT P6SM VCTS SCT060CB BKN100
     FM270200 04008G15KT P6SM VCTS BKN060CB OVC100=

USA.gov is the U.S. government's official web portal to all federal, state and local government web resources and services.